Hatton, Washington
Current Conditions -  °F | °C
As of 10:52 PM on Thursday 18 Dec 2014 (Local Time) from KMWH Reporting Station
Haze Haze  
Wind Chill: 37°   Ceiling: 7000
Heat Index: 37°   Visibility: 6mi
Dew Point: 36°   Wind: 0mph
Humidity: 96%   Direction: NA
Pressure: 29.91"   Gusts: NA
Location:  46.78°N, 118.83°W
Report Text: KMWH 190652Z AUTO 00000KT 6SM BR BKN070 03/02 A2991 RMK AO2 SLP136 T00280022
Loading
Personal Weather Stations






























Interactive Weather Map New forecast layout! Learn more

10-Day Weather Forecast

Advertisements
Track Severe Weather on mobile